Time;durP1;ratioP1;P1;durP2;ratioP2;P2;SDS_P1;SDS_P2;PMS_P1;PMS_P2;Temp;Humidity;BMP_temperature;BMP_pressure;BME280_temperature;BME280_humidity;BME280_pressure;Samples;Min_cycle;Max_cycle;Signal;HPM_P1;HPM_P2
2023/12/31 00:01:36;;;;;;;12.07;11.37;;;7.70;99.90;;;;;;5011070;28;20185;-64
2023/12/31 00:04:03;;;;;;;12.00;11.30;;;7.70;99.90;;;;;;5021847;28;20211;-63
2023/12/31 00:06:30;;;;;;;12.10;11.40;;;7.70;99.90;;;;;;5021901;28;20664;-62
2023/12/31 00:08:57;;;;;;;11.67;11.07;;;7.70;99.90;;;;;;5034715;28;20195;-63
2023/12/31 00:11:24;;;;;;;12.17;11.47;;;7.70;99.90;;;;;;5019732;28;20212;-62
2023/12/31 00:13:51;;;;;;;12.30;11.50;;;7.70;99.90;;;;;;5027323;28;20216;-62
2023/12/31 00:16:18;;;;;;;11.87;11.27;;;7.50;99.90;;;;;;5021236;28;20177;-63
2023/12/31 00:18:45;;;;;;;11.87;11.23;;;7.30;99.90;;;;;;5015594;28;20195;-63
2023/12/31 00:21:12;;;;;;;12.20;11.50;;;7.20;99.90;;;;;;5012930;28;20192;-62
2023/12/31 00:23:39;;;;;;;12.00;11.30;;;7.20;99.90;;;;;;5010790;28;20188;-62
2023/12/31 00:26:06;;;;;;;12.00;11.30;;;7.20;99.90;;;;;;5010584;28;20636;-63
2023/12/31 00:28:34;;;;;;;12.60;11.80;;;7.10;99.90;;;;;;5009374;28;20188;-62
2023/12/31 00:31:01;;;;;;;12.03;11.23;;;7.10;99.90;;;;;;5007669;28;20197;-63
2023/12/31 00:33:28;;;;;;;12.13;11.43;;;7.10;99.90;;;;;;5010490;28;20550;-60
2023/12/31 00:35:55;;;;;;;12.83;12.13;;;7.10;99.90;;;;;;4995882;28;20235;-62
2023/12/31 00:38:22;;;;;;;12.50;11.80;;;7.00;99.90;;;;;;5010826;28;20216;-62
2023/12/31 00:40:49;;;;;;;12.30;11.60;;;7.00;99.90;;;;;;5027597;28;20196;-62
2023/12/31 00:43:16;;;;;;;12.77;11.90;;;7.00;99.90;;;;;;5010093;28;20490;-63
2023/12/31 00:45:43;;;;;;;12.30;11.50;;;6.90;99.90;;;;;;5012927;28;20414;-61
2023/12/31 00:48:10;;;;;;;13.37;12.27;;;6.90;99.90;;;;;;5009260;28;20639;-62
2023/12/31 00:50:38;;;;;;;12.43;11.50;;;6.90;99.90;;;;;;5014424;28;20287;-63
2023/12/31 00:53:05;;;;;;;11.70;11.10;;;6.90;99.90;;;;;;4993868;28;20326;-67
2023/12/31 00:55:32;;;;;;;14.10;13.10;;;6.80;99.90;;;;;;5010384;28;20208;-66
2023/12/31 00:58:00;;;;;;;14.77;13.13;;;6.80;99.90;;;;;;5009712;28;20323;-67
2023/12/31 01:00:27;;;;;;;12.20;11.17;;;6.80;99.90;;;;;;5010261;28;20597;-67
2023/12/31 01:02:54;;;;;;;12.27;11.37;;;7.00;99.90;;;;;;5033741;28;20288;-67
2023/12/31 01:05:22;;;;;;;11.97;11.27;;;7.20;99.90;;;;;;5014471;28;20195;-67
2023/12/31 01:07:49;;;;;;;12.20;11.50;;;7.30;99.90;;;;;;5014237;28;20421;-69
2023/12/31 01:10:16;;;;;;;12.30;11.50;;;7.40;99.90;;;;;;5014652;28;20196;-67
2023/12/31 01:12:43;;;;;;;12.80;11.77;;;7.50;99.90;;;;;;5048140;28;20613;-67
2023/12/31 01:15:10;;;;;;;11.97;11.37;;;7.70;99.90;;;;;;5030209;28;20192;-67
2023/12/31 01:17:37;;;;;;;11.90;11.20;;;7.70;99.90;;;;;;4993550;28;20304;-67
2023/12/31 01:20:05;;;;;;;12.10;11.50;;;7.70;99.90;;;;;;5019634;28;20722;-67
2023/12/31 01:22:32;;;;;;;12.20;11.50;;;7.70;99.90;;;;;;5036229;28;20203;-67
2023/12/31 01:24:59;;;;;;;12.40;11.70;;;7.80;99.90;;;;;;5025121;28;20193;-67
2023/12/31 01:27:25;;;;;;;12.77;11.97;;;7.80;99.90;;;;;;5004205;28;20637;-68
2023/12/31 01:29:53;;;;;;;13.13;12.10;;;7.70;99.90;;;;;;5013807;28;20251;-67
2023/12/31 01:32:20;;;;;;;12.70;11.90;;;7.80;99.90;;;;;;5041664;28;20659;-67
2023/12/31 01:34:47;;;;;;;12.67;11.77;;;7.80;99.90;;;;;;4998770;28;20200;-67
2023/12/31 01:37:15;;;;;;;12.50;11.63;;;7.90;99.90;;;;;;5013699;28;20212;-67
2023/12/31 01:39:42;;;;;;;12.43;11.77;;;8.00;99.90;;;;;;5014354;28;20658;-66
2023/12/31 01:42:09;;;;;;;12.17;11.40;;;8.00;99.90;;;;;;5017903;28;20208;-66
2023/12/31 01:44:36;;;;;;;12.57;11.80;;;8.00;99.90;;;;;;5035011;28;20227;-67
2023/12/31 01:47:03;;;;;;;13.23;12.00;;;8.10;99.90;;;;;;5011748;28;20743;-65
2023/12/31 01:49:31;;;;;;;13.23;12.20;;;8.10;99.90;;;;;;5018022;28;20265;-65
2023/12/31 01:52:00;;;;;;;13.03;12.23;;;8.00;99.90;;;;;;5022166;28;20231;-65
2023/12/31 01:54:28;;;;;;;12.67;11.97;;;8.10;99.90;;;;;;5031014;28;20722;-65
2023/12/31 01:56:56;;;;;;;12.73;12.03;;;8.30;99.90;;;;;;5030610;28;20192;-65
2023/12/31 01:59:23;;;;;;;13.33;12.43;;;8.30;99.90;;;;;;5029038;28;20215;-66
2023/12/31 02:01:52;;;;;;;14.50;12.03;;;8.40;99.90;;;;;;5017054;28;20195;-65
2023/12/31 02:04:30;;;;;;;13.10;12.30;;;8.30;99.90;;;;;;5009778;28;20193;-65
2023/12/31 02:07:00;;;;;;;13.10;12.30;;;8.40;99.90;;;;;;5022667;28;20254;-65
2023/12/31 02:09:28;;;;;;;13.40;12.50;;;8.30;99.90;;;;;;5023489;28;20203;-65
2023/12/31 02:11:55;;;;;;;12.87;12.17;;;8.30;99.90;;;;;;5010354;28;20621;-66
2023/12/31 02:14:22;;;;;;;13.30;12.50;;;8.30;99.90;;;;;;5025725;28;20745;-65
2023/12/31 02:16:49;;;;;;;12.67;11.97;;;8.10;99.90;;;;;;5028331;28;20250;-66
2023/12/31 02:19:16;;;;;;;12.60;11.90;;;8.10;99.90;;;;;;5008338;28;20215;-67
2023/12/31 02:21:43;;;;;;;12.43;11.73;;;8.10;99.90;;;;;;5008905;28;20228;-65
2023/12/31 02:24:14;;;;;;;12.37;11.67;;;8.10;99.90;;;;;;5020903;28;20193;-66
2023/12/31 02:26:41;;;;;;;12.77;12.07;;;8.20;99.90;;;;;;5027710;28;20651;-66
2023/12/31 02:29:08;;;;;;;12.87;12.07;;;8.10;99.90;;;;;;5025215;28;20193;-66
2023/12/31 02:31:35;;;;;;;12.57;11.87;;;8.20;99.90;;;;;;5030265;28;20221;-66
2023/12/31 02:34:02;;;;;;;13.00;12.07;;;8.10;99.90;;;;;;5021102;28;20276;-67
2023/12/31 02:36:30;;;;;;;13.10;12.40;;;8.10;99.90;;;;;;5028198;28;20220;-66
2023/12/31 02:38:57;;;;;;;13.30;12.60;;;8.10;99.90;;;;;;5021887;28;20238;-65
2023/12/31 02:41:24;;;;;;;13.00;12.30;;;8.20;99.90;;;;;;5010179;28;20714;-66
2023/12/31 02:43:52;;;;;;;12.67;11.97;;;8.20;99.90;;;;;;5010023;28;20786;-65
2023/12/31 02:46:20;;;;;;;13.00;12.10;;;8.20;99.90;;;;;;5029939;28;20184;-66
2023/12/31 02:48:47;;;;;;;12.83;12.10;;;8.40;99.90;;;;;;5032606;28;20204;-66
2023/12/31 02:51:14;;;;;;;13.10;12.30;;;8.40;99.90;;;;;;4992733;28;20213;-67
2023/12/31 02:53:42;;;;;;;12.90;12.20;;;8.50;99.90;;;;;;5024531;28;20231;-66
2023/12/31 02:56:09;;;;;;;13.27;12.37;;;8.40;99.90;;;;;;5027088;28;20254;-66
2023/12/31 02:58:36;;;;;;;13.07;12.37;;;8.50;99.90;;;;;;5009287;28;20212;-67
2023/12/31 03:05:03;;;;;;;13.27;12.40;;;8.50;99.90;;;;;;5019285;28;20226;-61
2023/12/31 03:07:30;;;;;;;13.43;12.57;;;8.50;99.90;;;;;;5022757;28;20701;-64
2023/12/31 03:09:57;;;;;;;13.23;12.50;;;8.50;99.90;;;;;;5028675;28;20852;-62
2023/12/31 03:12:24;;;;;;;13.10;12.40;;;8.50;99.90;;;;;;5017245;28;20949;-61
2023/12/31 03:14:51;;;;;;;13.60;12.60;;;8.60;99.90;;;;;;5008663;28;20987;-62
2023/12/31 03:17:18;;;;;;;13.10;12.40;;;8.70;99.90;;;;;;5026714;28;20716;-61
2023/12/31 03:19:45;;;;;;;12.93;12.23;;;8.60;99.90;;;;;;5027258;28;20200;-63
2023/12/31 03:22:12;;;;;;;13.03;12.33;;;8.60;99.90;;;;;;5009996;28;20625;-64
2023/12/31 03:24:59;;;;;;;12.40;11.73;;;8.60;99.90;;;;;;5008838;28;20196;-62
2023/12/31 03:27:26;;;;;;;13.00;12.30;;;8.70;99.90;;;;;;5019571;28;20277;-62
2023/12/31 03:29:53;;;;;;;13.07;12.37;;;8.60;99.90;;;;;;5025009;28;20334;-62
2023/12/31 03:32:20;;;;;;;13.20;12.50;;;8.70;99.90;;;;;;5010226;28;20200;-61
2023/12/31 03:34:47;;;;;;;13.17;12.47;;;8.70;99.90;;;;;;5023773;28;20203;-62
2023/12/31 03:37:14;;;;;;;13.23;12.53;;;8.70;99.90;;;;;;5032634;28;20694;-61
2023/12/31 03:39:42;;;;;;;13.03;12.33;;;8.70;99.90;;;;;;5022392;28;20188;-62
2023/12/31 03:42:09;;;;;;;13.47;12.67;;;8.70;99.90;;;;;;5010036;28;20283;-61
2023/12/31 03:44:35;;;;;;;13.10;12.40;;;8.80;99.90;;;;;;5008555;28;20196;-60
2023/12/31 03:47:02;;;;;;;13.30;12.60;;;8.70;99.90;;;;;;5008061;28;20287;-63
2023/12/31 03:49:29;;;;;;;14.03;12.70;;;8.70;99.90;;;;;;5010641;28;20204;-62
2023/12/31 03:51:56;;;;;;;12.87;12.17;;;8.80;99.90;;;;;;5007141;28;20852;-71
2023/12/31 03:54:24;;;;;;;12.80;12.10;;;8.70;99.90;;;;;;5007827;28;20628;-63
2023/12/31 03:56:51;;;;;;;13.00;12.30;;;8.70;99.90;;;;;;5009073;28;20733;-62
2023/12/31 03:59:18;;;;;;;13.40;12.60;;;8.70;99.90;;;;;;5024914;28;20273;-63
2023/12/31 04:01:45;;;;;;;13.07;12.37;;;8.70;99.90;;;;;;5010809;28;20671;-63
2023/12/31 04:04:16;;;;;;;13.07;12.37;;;8.70;99.90;;;;;;5028010;28;20299;-62
2023/12/31 04:06:43;;;;;;;13.47;12.57;;;8.70;99.90;;;;;;5031907;28;20217;-61
2023/12/31 04:09:11;;;;;;;13.27;12.57;;;8.60;99.90;;;;;;4998007;28;20578;-63
2023/12/31 04:11:38;;;;;;;12.87;12.17;;;8.60;99.90;;;;;;5025885;28;20183;-67
2023/12/31 04:14:05;;;;;;;13.37;12.57;;;8.50;99.90;;;;;;5031614;28;20549;-66
2023/12/31 04:16:32;;;;;;;12.97;12.27;;;8.60;99.90;;;;;;5000967;28;20247;-67
2023/12/31 04:18:59;;;;;;;12.53;11.83;;;8.50;99.90;;;;;;5022544;28;20875;-67
2023/12/31 04:21:26;;;;;;;12.00;11.40;;;8.50;99.90;;;;;;5023222;28;20237;-67
2023/12/31 04:23:53;;;;;;;12.20;11.60;;;8.50;99.90;;;;;;5011005;28;20202;-66
2023/12/31 04:26:20;;;;;;;12.40;11.70;;;8.40;99.90;;;;;;5024648;28;20664;-67
2023/12/31 04:28:47;;;;;;;12.60;11.80;;;8.40;99.90;;;;;;5009855;28;20192;-66
2023/12/31 04:31:14;;;;;;;12.70;11.90;;;8.40;99.90;;;;;;5024700;28;20206;-67
2023/12/31 04:33:41;;;;;;;13.00;12.17;;;8.40;99.90;;;;;;4990852;28;20188;-67
2023/12/31 04:36:11;;;;;;;13.53;12.60;;;8.40;99.90;;;;;;5020457;28;20238;-67
2023/12/31 04:38:38;;;;;;;13.07;12.30;;;8.30;99.90;;;;;;5023558;28;20616;-67
2023/12/31 04:41:05;;;;;;;13.07;12.37;;;8.30;99.90;;;;;;5037344;28;20325;-67
2023/12/31 04:43:33;;;;;;;13.50;12.70;;;8.30;99.90;;;;;;5039998;28;20647;-66
2023/12/31 04:46:04;;;;;;;13.13;12.43;;;8.50;99.90;;;;;;5029303;28;20287;-67
2023/12/31 04:48:31;;;;;;;12.70;12.00;;;8.60;99.90;;;;;;5008823;28;20307;-65
2023/12/31 04:50:58;;;;;;;12.90;11.97;;;8.60;99.90;;;;;;5030212;28;20481;-67
2023/12/31 04:53:25;;;;;;;12.73;12.03;;;8.60;99.90;;;;;;5013689;28;20301;-67
2023/12/31 04:55:52;;;;;;;12.60;11.90;;;8.60;99.90;;;;;;5028542;28;20200;-67
2023/12/31 04:58:19;;;;;;;13.03;12.33;;;8.70;99.90;;;;;;5021131;28;20856;-66
2023/12/31 05:00:46;;;;;;;13.03;12.23;;;8.60;99.90;;;;;;5026543;28;20695;-67
2023/12/31 05:03:13;;;;;;;13.07;12.27;;;8.60;99.90;;;;;;5026030;28;20649;-66
2023/12/31 05:05:40;;;;;;;12.93;12.23;;;8.40;99.90;;;;;;5025294;28;20196;-67
2023/12/31 05:08:07;;;;;;;12.93;12.23;;;8.40;99.90;;;;;;5032333;28;20199;-67
2023/12/31 05:10:36;;;;;;;13.17;12.47;;;8.40;99.90;;;;;;5032432;28;20201;-67
2023/12/31 05:13:04;;;;;;;12.63;11.93;;;8.50;99.90;;;;;;5033465;28;20556;-67
2023/12/31 05:15:32;;;;;;;12.53;11.83;;;8.40;99.90;;;;;;5032769;28;20204;-67
2023/12/31 05:17:59;;;;;;;12.97;12.27;;;8.40;99.90;;;;;;5032388;28;20212;-67
2023/12/31 05:20:26;;;;;;;12.20;11.40;;;8.50;99.90;;;;;;5013199;28;20205;-67
2023/12/31 05:22:53;;;;;;;12.90;12.20;;;8.50;99.90;;;;;;5020626;28;20247;-61
2023/12/31 05:25:20;;;;;;;13.23;12.53;;;8.60;99.90;;;;;;5014846;28;20254;-61
2023/12/31 05:27:47;;;;;;;13.40;12.40;;;8.60;99.90;;;;;;5032030;28;20195;-60
2023/12/31 05:30:14;;;;;;;11.83;11.23;;;8.50;99.90;;;;;;5023322;28;20196;-61
2023/12/31 05:32:41;;;;;;;11.70;11.10;;;8.70;99.90;;;;;;5036831;28;20188;-67
2023/12/31 05:35:09;;;;;;;12.13;11.50;;;8.70;99.90;;;;;;5013485;28;20318;-67
2023/12/31 05:37:36;;;;;;;12.80;12.00;;;8.80;99.90;;;;;;5029482;28;20691;-67
2023/12/31 05:40:05;;;;;;;12.20;11.60;;;8.80;99.90;;;;;;5031177;28;20307;-67
2023/12/31 05:42:32;;;;;;;12.80;12.00;;;8.80;99.90;;;;;;5031027;28;20279;-67
2023/12/31 05:44:59;;;;;;;13.03;12.23;;;8.70;99.90;;;;;;5031057;28;20546;-67
2023/12/31 05:47:26;;;;;;;12.83;12.13;;;8.80;99.90;;;;;;5029703;28;20215;-67
2023/12/31 05:50:14;;;;;;;12.60;11.90;;;8.80;99.90;;;;;;5017184;28;20192;-67
2023/12/31 05:52:41;;;;;;;12.50;11.87;;;8.80;99.90;;;;;;5000544;28;20195;-67
2023/12/31 05:55:09;;;;;;;12.30;11.60;;;8.90;99.90;;;;;;5030664;28;20180;-67
2023/12/31 05:57:36;;;;;;;12.00;11.30;;;8.90;99.90;;;;;;5012796;28;20208;-67
2023/12/31 06:00:05;;;;;;;11.90;11.30;;;9.00;99.90;;;;;;5012089;28;20212;-66
2023/12/31 06:02:38;;;;;;;11.90;11.20;;;8.90;99.90;;;;;;5015760;28;20651;-66
2023/12/31 06:05:05;;;;;;;11.90;11.30;;;8.80;99.90;;;;;;5015555;28;20228;-66
2023/12/31 06:07:32;;;;;;;12.90;11.77;;;8.80;99.90;;;;;;4995943;28;20293;-67
2023/12/31 06:09:59;;;;;;;12.20;11.47;;;8.70;99.90;;;;;;5012109;28;21082;-66
2023/12/31 06:12:28;;;;;;;11.87;11.27;;;8.60;99.90;;;;;;5041121;28;20207;-66
2023/12/31 06:14:54;;;;;;;12.33;11.43;;;8.60;99.90;;;;;;5008751;28;20262;-65
2023/12/31 06:17:21;;;;;;;12.03;11.33;;;8.50;99.90;;;;;;5026108;28;20212;-67
2023/12/31 06:19:48;;;;;;;12.47;11.70;;;8.50;99.90;;;;;;4996122;28;20292;-66
2023/12/31 06:22:16;;;;;;;11.80;11.20;;;8.50;99.90;;;;;;5020906;28;20193;-68
2023/12/31 06:24:43;;;;;;;11.87;11.07;;;8.50;99.90;;;;;;5023622;28;20656;-67
2023/12/31 06:27:10;;;;;;;12.47;11.77;;;8.50;99.90;;;;;;5011994;28;20249;-68
2023/12/31 06:29:37;;;;;;;12.33;11.63;;;8.50;99.90;;;;;;5038120;28;20326;-68
2023/12/31 06:32:04;;;;;;;12.33;11.53;;;8.50;99.90;;;;;;5029506;28;20271;-63
2023/12/31 06:34:31;;;;;;;12.20;11.50;;;8.60;99.90;;;;;;5028818;28;20777;-63
2023/12/31 06:36:58;;;;;;;12.00;11.40;;;8.90;99.90;;;;;;5010647;28;20228;-62
2023/12/31 06:39:25;;;;;;;12.57;11.73;;;9.00;99.90;;;;;;5025629;28;20204;-62
2023/12/31 06:41:52;;;;;;;12.40;11.70;;;9.10;99.90;;;;;;5037984;28;20286;-63
2023/12/31 06:44:19;;;;;;;12.40;11.70;;;9.30;99.90;;;;;;5029553;28;20572;-62
2023/12/31 06:46:46;;;;;;;12.60;11.80;;;9.30;99.90;;;;;;5029658;28;20779;-62
2023/12/31 06:49:13;;;;;;;12.30;11.60;;;9.20;99.90;;;;;;5021215;28;20311;-61
2023/12/31 06:51:40;;;;;;;12.57;11.87;;;9.30;99.90;;;;;;5024180;28;20200;-61
2023/12/31 06:54:07;;;;;;;12.57;11.87;;;9.30;99.90;;;;;;5028767;28;20229;-61
2023/12/31 06:56:33;;;;;;;12.20;11.60;;;9.30;99.90;;;;;;5013145;28;20196;-60
2023/12/31 06:59:00;;;;;;;12.90;12.10;;;9.40;99.90;;;;;;5013766;28;20223;-60
2023/12/31 07:01:28;;;;;;;12.70;11.90;;;9.50;99.90;;;;;;5009268;28;20210;-61
2023/12/31 07:03:55;;;;;;;12.70;12.00;;;9.50;99.90;;;;;;5019408;28;20287;-62
2023/12/31 07:06:22;;;;;;;12.30;11.70;;;9.60;99.90;;;;;;5007656;28;20676;-60
2023/12/31 07:08:49;;;;;;;12.20;11.50;;;9.60;99.90;;;;;;5022043;28;20205;-62
2023/12/31 07:11:16;;;;;;;12.33;11.63;;;9.60;99.90;;;;;;5027628;28;20204;-61
2023/12/31 07:13:44;;;;;;;12.20;11.60;;;9.70;99.90;;;;;;5007893;28;20242;-62
2023/12/31 07:16:11;;;;;;;12.70;12.00;;;9.60;99.90;;;;;;5027910;28;20224;-62
2023/12/31 07:18:38;;;;;;;12.37;11.73;;;9.70;99.90;;;;;;5028472;28;20200;-62
2023/12/31 07:21:05;;;;;;;12.27;11.57;;;9.70;99.90;;;;;;5005935;28;20428;-62
2023/12/31 07:23:33;;;;;;;12.57;11.87;;;9.70;99.90;;;;;;5028189;28;20602;-63
2023/12/31 07:26:00;;;;;;;12.43;11.80;;;9.70;99.90;;;;;;5007351;28;20284;-61
2023/12/31 07:28:27;;;;;;;12.57;11.77;;;9.90;99.90;;;;;;5026926;28;20898;-64
2023/12/31 07:30:54;;;;;;;12.47;11.83;;;9.70;99.90;;;;;;5031909;28;20197;-61
2023/12/31 07:33:21;;;;;;;12.87;12.17;;;9.90;99.90;;;;;;5007174;28;20735;-61
2023/12/31 07:35:48;;;;;;;13.70;12.80;;;9.90;99.90;;;;;;5027983;28;20223;-62
2023/12/31 07:38:15;;;;;;;12.93;12.13;;;9.80;99.90;;;;;;5027971;28;20527;-62
2023/12/31 07:40:42;;;;;;;12.67;11.97;;;9.90;99.90;;;;;;4983459;28;20215;-62
2023/12/31 07:43:09;;;;;;;13.43;12.53;;;9.90;99.90;;;;;;5018092;28;20187;-67
2023/12/31 07:45:36;;;;;;;13.03;12.33;;;9.90;99.90;;;;;;5025098;28;20188;-67
2023/12/31 07:48:05;;;;;;;12.50;11.80;;;9.90;99.90;;;;;;5010783;28;20224;-67
2023/12/31 07:50:32;;;;;;;13.53;12.70;;;9.80;99.90;;;;;;5010236;28;20196;-67
2023/12/31 07:52:59;;;;;;;13.47;12.67;;;10.00;99.90;;;;;;5026415;28;20204;-63
2023/12/31 07:55:26;;;;;;;13.17;12.37;;;9.90;99.90;;;;;;5028215;28;20275;-62
2023/12/31 07:57:53;;;;;;;12.97;12.17;;;10.00;99.90;;;;;;5029250;28;20199;-64
2023/12/31 08:00:20;;;;;;;13.10;12.40;;;10.00;99.90;;;;;;5036977;28;20242;-63
2023/12/31 08:02:47;;;;;;;13.60;12.80;;;9.90;99.90;;;;;;5028024;28;20192;-63
2023/12/31 08:05:15;;;;;;;14.07;13.00;;;10.00;99.90;;;;;;5007061;28;20284;-62
2023/12/31 08:07:42;;;;;;;14.13;13.10;;;9.90;99.90;;;;;;5009862;28;20266;-63
2023/12/31 08:10:11;;;;;;;14.40;13.40;;;10.00;99.90;;;;;;5027833;28;20206;-63
2023/12/31 08:12:38;;;;;;;14.83;13.93;;;10.00;99.90;;;;;;5006495;28;20318;-62
2023/12/31 08:15:06;;;;;;;14.03;13.30;;;10.00;99.90;;;;;;5032540;28;20192;-62
2023/12/31 08:17:33;;;;;;;13.43;12.73;;;10.00;99.90;;;;;;5031526;28;20196;-63
2023/12/31 08:20:00;;;;;;;13.60;12.87;;;10.00;99.90;;;;;;4989809;28;20208;-62
2023/12/31 08:22:27;;;;;;;13.70;13.00;;;9.90;99.90;;;;;;5034163;28;20190;-62
2023/12/31 08:24:54;;;;;;;14.13;13.10;;;9.90;99.90;;;;;;5025317;28;20188;-62
2023/12/31 08:27:21;;;;;;;13.63;12.83;;;9.90;99.90;;;;;;5004365;28;20189;-62
2023/12/31 08:29:47;;;;;;;13.17;12.47;;;9.90;99.90;;;;;;5013441;28;20628;-61
2023/12/31 08:32:18;;;;;;;13.97;13.17;;;9.90;99.90;;;;;;5014003;28;20277;-62
2023/12/31 08:34:46;;;;;;;13.63;12.83;;;10.00;99.90;;;;;;5022445;28;20673;-62
2023/12/31 08:37:13;;;;;;;13.13;12.43;;;9.90;99.90;;;;;;4992635;28;20657;-62
2023/12/31 08:39:41;;;;;;;13.43;12.63;;;9.90;99.90;;;;;;4987446;28;20210;-61
2023/12/31 08:42:08;;;;;;;13.03;12.33;;;9.90;99.90;;;;;;4989782;28;20561;-63
2023/12/31 08:44:35;;;;;;;12.93;12.23;;;9.90;99.90;;;;;;4990394;28;20198;-60
2023/12/31 08:47:15;;;;;;;13.67;12.67;;;10.00;99.90;;;;;;4976962;28;20259;-65
2023/12/31 08:49:42;;;;;;;13.00;12.20;;;10.00;99.90;;;;;;4992648;28;20197;-62
2023/12/31 08:52:09;;;;;;;12.13;11.43;;;9.90;99.90;;;;;;4990662;28;20353;-62
2023/12/31 08:54:36;;;;;;;12.33;11.63;;;10.00;99.90;;;;;;4987523;28;20202;-61
2023/12/31 08:57:04;;;;;;;12.53;11.70;;;10.00;99.90;;;;;;4989478;28;20233;-63
2023/12/31 08:59:30;;;;;;;12.40;11.70;;;10.10;99.90;;;;;;4990346;28;20682;-62
2023/12/31 09:01:57;;;;;;;12.00;11.40;;;10.00;99.90;;;;;;4991254;28;20597;-66
2023/12/31 09:04:28;;;;;;;12.57;11.87;;;10.00;99.90;;;;;;4990823;28;20754;-67
2023/12/31 09:06:55;;;;;;;13.17;12.23;;;10.00;99.90;;;;;;4974598;28;20222;-67
2023/12/31 09:09:23;;;;;;;13.30;12.40;;;10.10;99.90;;;;;;4990031;28;20623;-67
2023/12/31 09:11:50;;;;;;;13.50;12.70;;;10.00;99.90;;;;;;4997273;28;20217;-67
2023/12/31 09:14:17;;;;;;;13.70;12.90;;;10.00;99.90;;;;;;4990927;28;20198;-67
2023/12/31 09:16:44;;;;;;;13.03;12.33;;;10.00;99.90;;;;;;4974819;28;20231;-66
2023/12/31 09:19:11;;;;;;;13.77;12.90;;;10.00;99.90;;;;;;4988818;28;20290;-66
2023/12/31 09:21:38;;;;;;;13.60;12.80;;;9.90;99.90;;;;;;4991188;28;20394;-66
2023/12/31 09:24:05;;;;;;;13.53;12.73;;;9.90;99.90;;;;;;4991296;28;20255;-67
2023/12/31 09:26:32;;;;;;;13.50;12.60;;;9.90;99.90;;;;;;4990054;28;20576;-66
2023/12/31 09:29:00;;;;;;;13.30;12.27;;;10.00;99.90;;;;;;4986654;28;20272;-67
2023/12/31 09:31:28;;;;;;;22.53;18.17;;;10.00;99.90;;;;;;4990115;28;20189;-67
2023/12/31 09:33:54;;;;;;;19.20;16.67;;;10.10;99.90;;;;;;4990411;28;20193;-67
2023/12/31 09:36:22;;;;;;;15.20;14.00;;;10.00;99.90;;;;;;4983485;28;20332;-68
2023/12/31 09:38:48;;;;;;;18.60;16.40;;;10.10;99.90;;;;;;4991047;28;20197;-67
2023/12/31 09:41:24;;;;;;;13.60;12.70;;;10.10;99.90;;;;;;5021921;28;20578;-67
2023/12/31 09:43:52;;;;;;;13.73;12.83;;;10.20;99.90;;;;;;5000119;28;20323;-67
2023/12/31 09:46:21;;;;;;;14.67;13.53;;;10.30;99.90;;;;;;5010891;28;20596;-67
2023/12/31 09:48:53;;;;;;;14.20;13.20;;;10.40;99.90;;;;;;5030890;28;20254;-67
2023/12/31 09:51:21;;;;;;;16.03;14.63;;;10.40;99.90;;;;;;5006501;28;20208;-66
2023/12/31 09:53:53;;;;;;;15.03;13.93;;;10.40;99.90;;;;;;4997993;28;20198;-66
2023/12/31 09:56:21;;;;;;;14.93;13.83;;;10.40;99.90;;;;;;5013584;28;20200;-67
2023/12/31 09:58:51;;;;;;;14.50;13.30;;;10.40;99.90;;;;;;4993504;28;20201;-67
2023/12/31 10:01:33;;;;;;;14.63;13.43;;;10.40;99.90;;;;;;5011248;28;20292;-68
2023/12/31 10:04:02;;;;;;;13.73;12.87;;;10.40;99.90;;;;;;5011208;28;20278;-68
2023/12/31 10:06:30;;;;;;;14.23;13.30;;;10.40;99.90;;;;;;5014625;28;20765;-68
2023/12/31 10:08:58;;;;;;;14.00;13.10;;;10.40;99.90;;;;;;5006937;28;20564;-67
2023/12/31 10:11:25;;;;;;;13.30;12.60;;;10.50;99.90;;;;;;5010447;28;20389;-67
2023/12/31 10:13:52;;;;;;;14.03;13.03;;;10.60;99.90;;;;;;5004395;28;20671;-67
2023/12/31 10:16:19;;;;;;;13.50;12.80;;;10.60;99.90;;;;;;5009158;28;20197;-67
2023/12/31 10:18:46;;;;;;;13.60;12.80;;;10.60;99.90;;;;;;5010333;28;20212;-67
2023/12/31 10:21:14;;;;;;;13.27;12.53;;;10.60;99.90;;;;;;5005221;28;20253;-67
2023/12/31 10:23:41;;;;;;;13.37;12.57;;;10.60;99.90;;;;;;4999720;28;20193;-67
2023/12/31 10:26:08;;;;;;;13.23;12.47;;;10.60;99.90;;;;;;5006798;28;20263;-67
2023/12/31 10:28:35;;;;;;;14.43;13.40;;;10.70;99.90;;;;;;5007012;28;20269;-67
2023/12/31 10:31:03;;;;;;;14.83;13.83;;;10.80;99.90;;;;;;5025377;28;20193;-66
2023/12/31 10:33:31;;;;;;;13.20;12.50;;;10.80;99.90;;;;;;5011326;28;20219;-67
2023/12/31 10:36:04;;;;;;;13.00;12.30;;;10.90;99.90;;;;;;5005104;28;20693;-68
2023/12/31 10:38:45;;;;;;;13.13;12.43;;;10.90;99.90;;;;;;4992986;28;20198;-67
2023/12/31 10:41:21;;;;;;;13.33;12.53;;;11.00;99.90;;;;;;4990544;28;20213;-68
2023/12/31 10:43:49;;;;;;;13.40;12.60;;;11.00;99.90;;;;;;4995812;28;20534;-67
2023/12/31 10:46:20;;;;;;;13.43;12.63;;;11.10;99.90;;;;;;4987674;28;20620;-66
2023/12/31 10:49:10;;;;;;;13.30;12.50;;;11.10;99.90;;;;;;4984376;28;20304;-69
2023/12/31 10:51:41;;;;;;;13.77;12.80;;;11.30;99.90;;;;;;4985201;28;20209;-72
2023/12/31 10:54:15;;;;;;;13.60;12.70;;;11.60;99.90;;;;;;4989891;28;20275;-69
2023/12/31 10:56:43;;;;;;;13.83;12.70;;;11.60;99.90;;;;;;4988928;28;20189;-70
2023/12/31 10:59:12;;;;;;;13.00;12.30;;;11.80;99.90;;;;;;4987365;28;20206;-70
2023/12/31 11:01:40;;;;;;;13.70;12.60;;;11.80;99.90;;;;;;4994446;28;20221;-72
2023/12/31 11:04:09;;;;;;;13.97;12.87;;;11.90;99.90;;;;;;4992422;28;20208;-70
2023/12/31 11:06:38;;;;;;;13.40;12.50;;;13.60;99.90;;;;;;4965167;28;20592;-70
2023/12/31 11:09:06;;;;;;;13.88;13.00;;;14.20;99.90;;;;;;4989304;28;20609;-70
2023/12/31 11:11:32;;;;;;;13.90;13.00;;;13.40;99.90;;;;;;4989459;28;20269;-64
2023/12/31 11:14:04;;;;;;;14.38;13.35;;;13.30;99.90;;;;;;4987984;28;20196;-64
2023/12/31 11:16:48;;;;;;;15.95;14.85;;;13.60;99.90;;;;;;4992277;28;20589;-63
2023/12/31 11:19:49;;;;;;;15.05;13.95;;;13.50;99.90;;;;;;4977124;28;20193;-63
2023/12/31 11:23:17;;;;;;;14.98;14.02;;;13.20;99.90;;;;;;4980196;28;20208;-63
2023/12/31 11:25:45;;;;;;;14.30;13.50;;;12.80;99.90;;;;;;4913123;29;20199;-63
2023/12/31 11:28:12;;;;;;;14.10;13.20;;;12.40;99.90;;;;;;4914870;29;20206;-67
2023/12/31 11:30:51;;;;;;;14.32;13.50;;;12.10;99.90;;;;;;4966009;28;20228;-63
2023/12/31 11:33:29;;;;;;;14.80;13.90;;;12.00;99.90;;;;;;4977488;28;20515;-62
2023/12/31 11:36:05;;;;;;;13.90;13.07;;;12.00;99.90;;;;;;5010723;28;20236;-62
2023/12/31 11:38:53;;;;;;;13.87;13.07;;;12.10;99.90;;;;;;5011392;28;20727;-63
2023/12/31 11:41:22;;;;;;;14.10;13.30;;;12.10;99.90;;;;;;5023132;28;20204;-62
2023/12/31 11:43:52;;;;;;;14.07;13.20;;;12.50;99.90;;;;;;5008879;28;20704;-72
2023/12/31 11:46:36;;;;;;;13.73;12.93;;;12.60;99.90;;;;;;5006540;28;20690;-63
2023/12/31 11:49:04;;;;;;;14.32;13.43;;;13.70;99.90;;;;;;5016344;28;20216;-67
2023/12/31 11:51:56;;;;;;;14.43;13.52;;;13.30;99.90;;;;;;5019444;28;20583;-64
2023/12/31 11:54:24;;;;;;;14.40;13.50;;;13.00;99.90;;;;;;4999546;28;20278;-62
2023/12/31 11:56:52;;;;;;;14.25;13.35;;;12.50;99.90;;;;;;5003176;28;20220;-71
2023/12/31 11:59:20;;;;;;;14.30;13.30;;;12.20;99.90;;;;;;5028896;28;20196;-62
2023/12/31 12:01:48;;;;;;;13.90;13.00;;;12.00;99.90;;;;;;5009993;28;20226;-65
2023/12/31 12:04:20;;;;;;;14.10;13.20;;;11.90;99.90;;;;;;5023461;28;20279;-63
2023/12/31 12:06:47;;;;;;;14.33;13.10;;;11.90;99.90;;;;;;5019731;28;20306;-62
2023/12/31 12:09:14;;;;;;;14.60;13.50;;;11.80;99.90;;;;;;5025230;28;20651;-61
2023/12/31 12:11:43;;;;;;;14.57;13.67;;;11.70;99.90;;;;;;5011087;28;20227;-66
2023/12/31 12:14:12;;;;;;;13.83;12.93;;;11.60;99.90;;;;;;5009944;28;20689;-63
2023/12/31 12:16:42;;;;;;;13.80;12.95;;;11.60;99.90;;;;;;5030474;28;20610;-63
2023/12/31 12:19:10;;;;;;;13.73;12.88;;;11.60;99.90;;;;;;4988067;28;20299;-62
2023/12/31 12:21:37;;;;;;;13.53;12.73;;;11.50;99.90;;;;;;5021748;28;20624;-71
2023/12/31 12:24:04;;;;;;;13.25;12.50;;;11.50;99.90;;;;;;5011428;28;20197;-70
2023/12/31 12:26:31;;;;;;;14.23;13.33;;;11.50;99.90;;;;;;5029138;28;20258;-67
2023/12/31 12:28:58;;;;;;;13.40;12.67;;;11.50;99.90;;;;;;5028129;28;20196;-69
2023/12/31 12:31:34;;;;;;;14.10;13.30;;;11.40;99.90;;;;;;5028467;28;20199;-69
2023/12/31 12:34:03;;;;;;;14.20;13.30;;;11.50;99.90;;;;;;4998641;28;20232;-69
2023/12/31 12:36:32;;;;;;;13.90;13.00;;;11.50;99.90;;;;;;5036817;28;20251;-68
2023/12/31 12:39:05;;;;;;;13.80;13.00;;;11.40;99.90;;;;;;5013748;28;20200;-69
2023/12/31 12:41:32;;;;;;;14.10;13.30;;;11.40;99.90;;;;;;5021937;28;20777;-68
2023/12/31 12:44:00;;;;;;;13.77;12.97;;;11.40;99.90;;;;;;4991496;28;20258;-71